createdAt,value
2022-08-07T00:02:35.622Z,10.42
2022-08-07T00:04:05.942Z,10.34
2022-08-07T00:06:33.451Z,10.30
2022-08-07T00:09:16.195Z,10.25
2022-08-07T00:11:54.231Z,10.20
2022-08-07T00:14:25.411Z,10.17
2022-08-07T00:16:57.360Z,10.14
2022-08-07T00:19:26.126Z,10.13
2022-08-07T00:22:10.145Z,10.04
2022-08-07T00:24:38.549Z,10.00
2022-08-07T00:27:07.737Z,9.95
2022-08-07T00:29:37.043Z,9.91
2022-08-07T00:32:05.918Z,9.84
2022-08-07T00:34:33.666Z,9.83
2022-08-07T00:37:02.300Z,9.76
2022-08-07T00:39:31.861Z,9.77
2022-08-07T00:42:01.782Z,9.74
2022-08-07T00:44:31.171Z,9.70
2022-08-07T00:46:59.732Z,9.70
2022-08-07T00:50:20.419Z,9.69
2022-08-07T00:52:12.643Z,9.63
2022-08-07T00:54:40.816Z,9.62
2022-08-07T00:57:10.290Z,9.59
2022-08-07T00:59:38.872Z,9.57
2022-08-07T01:02:08.904Z,9.57
2022-08-07T01:04:43.230Z,9.57
2022-08-07T01:07:11.826Z,9.52
2022-08-07T01:10:07.153Z,9.52
2022-08-07T01:12:29.862Z,9.47
2022-08-07T01:15:01.244Z,9.46
2022-08-07T01:17:30.487Z,9.42
2022-08-07T01:20:03.740Z,9.39
2022-08-07T01:22:30.972Z,9.38
2022-08-07T01:24:59.244Z,9.35
2022-08-07T01:27:32.108Z,9.35
2022-08-07T01:29:59.687Z,9.29
2022-08-07T01:32:27.699Z,9.24
2022-08-07T01:34:55.956Z,9.16
2022-08-07T01:37:24.068Z,9.12
2022-08-07T01:39:51.055Z,9.07
2022-08-07T01:42:38.538Z,9.04
2022-08-07T01:45:09.631Z,9.04
2022-08-07T01:48:19.182Z,8.98
2022-08-07T01:50:30.577Z,9.02
2022-08-07T01:52:58.795Z,9.02
2022-08-07T01:55:34.189Z,9.04
2022-08-07T01:58:06.304Z,8.95
2022-08-07T02:00:57.961Z,8.91
2022-08-07T02:03:51.010Z,8.94
2022-08-07T02:06:31.795Z,8.98
2022-08-07T02:09:01.606Z,8.92
2022-08-07T02:12:03.236Z,8.89
2022-08-07T02:14:40.387Z,8.87
2022-08-07T02:17:10.054Z,8.84
2022-08-07T02:20:04.874Z,8.83
2022-08-07T02:22:27.110Z,8.77
2022-08-07T02:24:57.345Z,8.78
2022-08-07T02:27:26.235Z,8.77
2022-08-07T02:30:03.636Z,8.77
2022-08-07T02:32:36.109Z,8.74
2022-08-07T02:35:09.194Z,8.74
2022-08-07T02:37:44.213Z,8.67
2022-08-07T02:40:31.077Z,8.64
2022-08-07T02:42:59.067Z,8.65
2022-08-07T02:46:00.693Z,8.65
2022-08-07T02:48:17.181Z,8.63
2022-08-07T02:50:48.354Z,8.60
2022-08-07T02:53:27.584Z,8.56
2022-08-07T02:56:04.340Z,8.57
2022-08-07T02:58:33.955Z,8.57
2022-08-07T03:01:03.117Z,8.54
2022-08-07T03:03:49.059Z,8.54
2022-08-07T03:06:26.024Z,8.52
2022-08-07T03:09:00.109Z,8.52
2022-08-07T03:11:28.241Z,8.49
2022-08-07T03:13:57.648Z,8.49
2022-08-07T03:16:28.524Z,8.47
2022-08-07T03:18:58.003Z,8.46
2022-08-07T03:21:25.226Z,8.46
2022-08-07T03:24:19.443Z,8.46
2022-08-07T03:26:51.199Z,8.40
2022-08-07T03:29:27.543Z,8.43
2022-08-07T03:31:55.811Z,8.42
2022-08-07T03:34:27.159Z,8.44
2022-08-07T03:36:55.036Z,8.40
2022-08-07T03:39:46.561Z,8.43
2022-08-07T03:42:13.141Z,8.44
2022-08-07T03:44:40.398Z,8.43
2022-08-07T03:47:10.863Z,8.44
2022-08-07T03:49:40.380Z,8.43
2022-08-07T03:52:26.228Z,8.43
2022-08-07T03:54:57.338Z,8.43
2022-08-07T03:58:34.612Z,8.42
2022-08-07T04:00:14.855Z,8.43
2022-08-07T04:02:47.205Z,8.42
2022-08-07T04:05:15.845Z,8.46
2022-08-07T04:07:49.013Z,8.49
2022-08-07T04:10:19.545Z,8.52
2022-08-07T04:12:48.671Z,8.52
2022-08-07T04:15:18.160Z,8.53
2022-08-07T04:18:31.167Z,8.57
2022-08-07T04:20:31.811Z,8.59
2022-08-07T04:23:06.261Z,8.61
2022-08-07T04:25:39.067Z,8.70
2022-08-07T04:28:08.081Z,8.73
2022-08-07T04:30:43.565Z,8.81
2022-08-07T04:33:24.222Z,8.85
2022-08-07T04:35:53.905Z,8.89
2022-08-07T04:38:21.660Z,8.95
2022-08-07T04:40:52.244Z,9.00
2022-08-07T04:44:09.644Z,9.05
2022-08-07T04:46:25.864Z,9.14
2022-08-07T04:48:56.000Z,9.16
2022-08-07T04:51:43.642Z,9.29
2022-08-07T04:54:30.521Z,9.39
2022-08-07T04:58:29.365Z,9.50
2022-08-07T05:00:30.805Z,9.62
2022-08-07T05:03:17.357Z,9.72
2022-08-07T05:06:28.178Z,9.84
2022-08-07T05:09:10.436Z,10.03
2022-08-07T05:11:56.881Z,10.18
2022-08-07T05:14:55.624Z,10.32
2022-08-07T05:17:51.929Z,10.54
2022-08-07T05:20:09.970Z,10.73
2022-08-07T05:22:38.695Z,10.93
2022-08-07T05:25:08.472Z,11.09
2022-08-07T05:28:03.483Z,11.26
2022-08-07T05:30:32.858Z,11.44
2022-08-07T05:33:02.624Z,11.67
2022-08-07T05:35:33.472Z,11.92
2022-08-07T05:38:10.037Z,12.23
2022-08-07T05:40:50.421Z,12.47
2022-08-07T05:43:19.081Z,12.68
2022-08-07T05:45:48.348Z,12.84
2022-08-07T05:48:15.548Z,13.08
2022-08-07T05:50:43.552Z,13.34
2022-08-07T05:54:14.106Z,13.61
2022-08-07T05:56:03.735Z,14.16
2022-08-07T05:58:36.819Z,15.95
2022-08-07T06:01:05.979Z,18.18
2022-08-07T06:03:56.391Z,19.73
2022-08-07T06:06:29.594Z,20.86
2022-08-07T06:08:59.015Z,21.71
2022-08-07T06:11:25.739Z,22.33
2022-08-07T06:14:13.139Z,22.91
2022-08-07T06:16:39.013Z,23.39
2022-08-07T06:19:06.490Z,24.01
2022-08-07T06:22:15.282Z,24.47
2022-08-07T06:24:48.190Z,24.95
2022-08-07T06:27:06.729Z,24.75
2022-08-07T06:29:34.835Z,24.76
2022-08-07T06:32:05.510Z,25.22
2022-08-07T06:34:31.992Z,25.91
2022-08-07T06:36:58.343Z,25.75
2022-08-07T06:40:15.756Z,25.74
2022-08-07T06:42:34.816Z,25.99
2022-08-07T06:45:02.960Z,24.99
2022-08-07T06:47:38.891Z,25.48
2022-08-07T06:50:19.058Z,26.24
2022-08-07T06:52:48.763Z,26.60
2022-08-07T06:55:53.424Z,27.23
2022-08-07T06:58:21.347Z,27.23
2022-08-07T07:00:52.982Z,27.92
2022-08-07T07:03:39.760Z,28.07
2022-08-07T07:06:10.958Z,27.95
2022-08-07T07:08:39.816Z,27.79
2022-08-07T07:12:07.846Z,28.30
2022-08-07T07:14:02.761Z,28.94
2022-08-07T07:16:45.434Z,29.25
2022-08-07T07:19:56.049Z,28.99
2022-08-07T07:22:11.883Z,28.45
2022-08-07T07:25:13.912Z,29.20
2022-08-07T07:28:07.741Z,29.27
2022-08-07T07:30:59.823Z,29.45
2022-08-07T07:33:28.515Z,29.81
2022-08-07T07:36:05.548Z,26.46
2022-08-07T07:38:41.984Z,27.70
2022-08-07T07:41:15.650Z,29.12
2022-08-07T07:44:13.886Z,26.97
2022-08-07T07:46:39.726Z,27.76
2022-08-07T07:50:33.337Z,28.99
2022-08-07T07:52:10.459Z,30.20
2022-08-07T07:54:37.831Z,31.00
2022-08-07T07:57:08.952Z,31.27
2022-08-07T07:59:51.529Z,29.45
2022-08-07T08:02:33.835Z,30.63
2022-08-07T08:05:05.157Z,30.87
2022-08-07T08:07:35.830Z,31.88
2022-08-07T08:10:10.832Z,31.70
2022-08-07T08:12:59.288Z,30.92
2022-08-07T08:15:29.478Z,28.69
2022-08-07T08:18:17.321Z,31.48
2022-08-07T08:20:45.439Z,32.15
2022-08-07T08:23:34.773Z,32.63
2022-08-07T08:26:23.347Z,32.01
2022-08-07T08:28:54.288Z,33.00
2022-08-07T08:31:30.025Z,33.86
2022-08-07T08:34:27.287Z,33.92
2022-08-07T08:36:57.995Z,33.69
2022-08-07T08:39:39.328Z,33.82
2022-08-07T08:42:26.278Z,34.34
2022-08-07T08:45:04.327Z,34.27
2022-08-07T08:47:52.590Z,34.28
2022-08-07T08:50:28.355Z,34.57
2022-08-07T08:53:33.892Z,35.66
2022-08-07T08:56:10.008Z,35.79
2022-08-07T08:59:06.622Z,36.85
2022-08-07T09:01:59.760Z,36.72
2022-08-07T09:04:37.266Z,37.04
2022-08-07T09:07:11.606Z,36.47
2022-08-07T09:10:07.798Z,34.15
2022-08-07T09:12:53.618Z,33.99
2022-08-07T09:16:20.586Z,33.57
2022-08-07T09:18:37.441Z,35.29
2022-08-07T09:22:09.965Z,35.56
2022-08-07T09:25:07.015Z,33.63
2022-08-07T09:27:59.796Z,33.92
2022-08-07T09:30:34.367Z,33.29
2022-08-07T09:33:40.677Z,33.86
2022-08-07T09:36:18.533Z,33.92
2022-08-07T09:38:54.133Z,33.32
2022-08-07T09:41:28.087Z,34.81
2022-08-07T09:44:52.206Z,33.88
2022-08-07T09:47:56.163Z,33.58
2022-08-07T09:51:14.537Z,30.80
2022-08-07T09:54:02.608Z,32.77
2022-08-07T09:57:00.599Z,29.40
2022-08-07T09:59:46.206Z,30.82
2022-08-07T10:02:54.958Z,31.07
2022-08-07T10:05:59.842Z,33.89
2022-08-07T10:08:49.546Z,33.69
2022-08-07T10:12:03.308Z,33.72
2022-08-07T10:14:55.181Z,31.40
2022-08-07T10:18:00.803Z,34.40
2022-08-07T10:20:44.288Z,34.53
2022-08-07T10:24:04.747Z,35.79
2022-08-07T10:26:39.738Z,35.67
2022-08-07T10:29:25.463Z,35.79
2022-08-07T10:32:36.478Z,35.77
2022-08-07T10:35:25.443Z,36.35
2022-08-07T10:38:21.364Z,36.43
2022-08-07T10:41:08.909Z,36.79
2022-08-07T10:44:07.372Z,35.97
2022-08-07T10:46:57.552Z,33.55
2022-08-07T10:49:49.164Z,32.30
2022-08-07T10:52:51.880Z,30.87
2022-08-07T10:55:41.958Z,31.31
2022-08-07T10:58:33.343Z,30.83
2022-08-07T11:02:02.589Z,31.57
2022-08-07T11:04:42.904Z,31.62
2022-08-07T11:07:58.800Z,32.12
2022-08-07T11:10:45.332Z,33.22
2022-08-07T11:14:43.608Z,35.39
2022-08-07T11:17:01.766Z,34.90
2022-08-07T11:19:53.029Z,32.46
2022-08-07T11:22:36.010Z,31.03
2022-08-07T11:25:24.208Z,30.05
2022-08-07T11:28:15.513Z,31.92
2022-08-07T11:30:52.386Z,33.32
2022-08-07T11:33:54.218Z,34.98
2022-08-07T11:36:36.635Z,35.01
2022-08-07T11:39:20.040Z,34.23
2022-08-07T11:42:03.303Z,33.24
2022-08-07T11:44:59.931Z,33.72
2022-08-07T11:47:56.312Z,35.01
2022-08-07T11:50:59.762Z,33.19
2022-08-07T11:54:00.594Z,31.84
2022-08-07T11:56:41.017Z,33.55
2022-08-07T12:00:10.534Z,34.40
2022-08-07T12:02:36.768Z,35.74
2022-08-07T12:05:49.043Z,34.96
2022-08-07T12:08:25.667Z,31.37
2022-08-07T12:11:21.386Z,32.77
2022-08-07T12:13:54.554Z,34.02
2022-08-07T12:16:30.087Z,34.44
2022-08-07T12:19:22.027Z,33.85
2022-08-07T12:22:39.124Z,31.50
2022-08-07T12:26:05.630Z,33.54
2022-08-07T12:28:17.737Z,33.11
2022-08-07T12:31:09.307Z,32.56
2022-08-07T12:34:01.317Z,34.50
2022-08-07T12:36:33.035Z,34.80
2022-08-07T12:39:09.429Z,31.62
2022-08-07T12:41:53.500Z,33.68
2022-08-07T12:44:21.586Z,33.49
2022-08-07T12:47:21.770Z,30.75
2022-08-07T12:50:39.104Z,32.56
2022-08-07T12:53:05.219Z,33.48
2022-08-07T12:56:02.926Z,33.80
2022-08-07T12:58:37.479Z,32.56
2022-08-07T13:01:06.364Z,31.27
2022-08-07T13:04:02.756Z,32.33
2022-08-07T13:07:00.451Z,33.85
2022-08-07T13:10:19.633Z,34.43
2022-08-07T13:12:54.237Z,32.56
2022-08-07T13:15:33.799Z,31.52
2022-08-07T13:18:26.152Z,31.81
2022-08-07T13:21:02.727Z,33.25
2022-08-07T13:24:02.011Z,33.49
2022-08-07T13:26:39.664Z,32.48
2022-08-07T13:29:34.705Z,32.39
2022-08-07T13:32:32.038Z,32.35
2022-08-07T13:35:08.963Z,32.83
2022-08-07T13:37:59.180Z,32.90
2022-08-07T13:40:36.430Z,31.93
2022-08-07T13:43:12.732Z,31.50
2022-08-07T13:46:11.977Z,29.27
2022-08-07T13:48:35.098Z,30.43
2022-08-07T13:51:27.352Z,30.99
2022-08-07T13:54:02.139Z,30.94
2022-08-07T13:56:40.767Z,30.25
2022-08-07T13:59:19.789Z,31.24
2022-08-07T14:02:08.414Z,31.45
2022-08-07T14:04:50.080Z,31.55
2022-08-07T14:07:22.845Z,31.54
2022-08-07T14:10:24.380Z,31.21
2022-08-07T14:12:55.590Z,30.38
2022-08-07T14:15:37.002Z,30.21
2022-08-07T14:18:28.058Z,29.66
2022-08-07T14:22:00.731Z,29.16
2022-08-07T14:24:12.888Z,28.91
2022-08-07T14:26:50.201Z,28.54
2022-08-07T14:32:12.331Z,28.36
2022-08-07T14:34:45.654Z,28.12
2022-08-07T14:37:16.362Z,28.00
2022-08-07T14:40:17.707Z,27.78
2022-08-07T14:42:33.873Z,27.61
2022-08-07T14:45:21.341Z,27.38
2022-08-07T14:47:50.432Z,27.12
2022-08-07T14:50:20.322Z,26.82
2022-08-07T14:52:47.826Z,26.72
2022-08-07T14:55:18.005Z,26.60
2022-08-07T14:57:58.542Z,26.46
2022-08-07T15:00:31.590Z,26.43
2022-08-07T15:03:00.168Z,26.46
2022-08-07T15:05:55.122Z,26.69
2022-08-07T15:08:34.831Z,26.57
2022-08-07T15:11:15.571Z,26.35
2022-08-07T15:14:09.961Z,25.84
2022-08-07T15:16:54.832Z,25.87
2022-08-07T15:20:31.303Z,25.70
2022-08-07T15:22:23.125Z,25.54
2022-08-07T15:25:16.103Z,25.43
2022-08-07T15:28:32.146Z,25.37
2022-08-07T15:30:35.034Z,25.26
2022-08-07T15:33:05.659Z,25.30
2022-08-07T15:36:01.407Z,25.40
2022-08-07T15:38:50.925Z,25.27
2022-08-07T15:42:43.525Z,24.99
2022-08-07T15:44:12.356Z,24.82
2022-08-07T15:46:51.867Z,24.64
2022-08-07T15:49:25.356Z,24.57
2022-08-07T15:52:15.439Z,24.51
2022-08-07T15:54:45.433Z,24.39
2022-08-07T15:57:28.050Z,24.25
2022-08-07T16:00:08.158Z,24.14
2022-08-07T16:02:40.236Z,24.01
2022-08-07T16:05:15.123Z,23.94
2022-08-07T16:08:30.285Z,23.94
2022-08-07T16:10:59.842Z,23.86
2022-08-07T16:13:57.470Z,23.76
2022-08-07T16:16:48.006Z,23.63
2022-08-07T16:19:41.892Z,23.73
2022-08-07T16:22:38.618Z,23.96
2022-08-07T16:25:54.324Z,24.13
2022-08-07T16:30:06.516Z,24.24
2022-08-07T16:31:58.131Z,24.10
2022-08-07T16:34:48.861Z,24.18
2022-08-07T16:38:04.730Z,24.17
2022-08-07T16:40:30.624Z,24.08
2022-08-07T16:43:23.684Z,24.04
2022-08-07T16:50:27.885Z,23.76
2022-08-07T16:52:49.123Z,23.66
2022-08-07T16:55:24.224Z,23.53
2022-08-07T16:58:04.124Z,23.38
2022-08-07T17:00:40.916Z,23.29
2022-08-07T17:03:58.566Z,23.26
2022-08-07T17:06:58.049Z,23.23
2022-08-07T17:10:06.725Z,23.09
2022-08-07T17:12:45.476Z,22.94
2022-08-07T17:15:16.037Z,22.79
2022-08-07T17:17:56.248Z,22.67
2022-08-07T17:20:54.761Z,22.57
2022-08-07T17:23:39.665Z,22.44
2022-08-07T17:26:34.902Z,22.39
2022-08-07T17:29:09.484Z,22.24
2022-08-07T17:32:28.323Z,22.13
2022-08-07T17:35:51.267Z,22.05
2022-08-07T17:38:33.607Z,21.98
2022-08-07T17:42:02.615Z,21.86
2022-08-07T17:44:01.924Z,21.77
2022-08-07T17:46:47.161Z,21.61
2022-08-07T17:49:30.113Z,21.51
2022-08-07T17:52:10.453Z,21.38
2022-08-07T17:54:54.377Z,21.28
2022-08-07T17:57:58.533Z,21.21
2022-08-07T18:00:32.975Z,21.06
2022-08-07T18:03:18.082Z,20.93
2022-08-07T18:06:01.500Z,20.86
2022-08-07T18:09:01.379Z,20.75
2022-08-07T18:12:06.718Z,20.62
2022-08-07T18:14:46.297Z,20.48
2022-08-07T18:19:02.683Z,20.36
2022-08-07T18:21:07.459Z,20.25
2022-08-07T18:23:58.430Z,20.11
2022-08-07T18:26:50.251Z,19.97
2022-08-07T18:30:05.423Z,19.81
2022-08-07T18:32:22.174Z,19.66
2022-08-07T18:35:00.877Z,19.57
2022-08-07T18:38:58.182Z,19.43
2022-08-07T18:40:53.866Z,19.26
2022-08-07T18:43:49.530Z,19.12
2022-08-07T18:46:28.182Z,18.98
2022-08-07T18:50:32.680Z,18.87
2022-08-07T18:52:33.776Z,18.69
2022-08-07T18:55:42.287Z,18.51
2022-08-07T18:58:29.843Z,18.33
2022-08-07T19:01:06.910Z,18.23
2022-08-07T19:04:09.838Z,18.09
2022-08-07T19:07:03.717Z,17.96
2022-08-07T19:09:59.226Z,17.82
2022-08-07T19:12:59.163Z,17.72
2022-08-07T19:16:04.249Z,17.62
2022-08-07T19:18:46.438Z,17.55
2022-08-07T19:21:51.109Z,17.43
2022-08-07T19:24:36.831Z,17.31
2022-08-07T19:28:30.006Z,17.22
2022-08-07T19:31:06.376Z,17.10
2022-08-07T19:32:59.174Z,17.00
2022-08-07T19:35:28.287Z,16.90
2022-08-07T19:38:02.417Z,16.87
2022-08-07T19:40:36.264Z,16.80
2022-08-07T19:43:21.721Z,16.70
2022-08-07T19:46:10.038Z,16.56
2022-08-07T19:48:42.391Z,16.50
2022-08-07T19:51:19.128Z,16.45
2022-08-07T19:54:33.901Z,16.34
2022-08-07T19:57:52.417Z,16.25
2022-08-07T19:59:40.635Z,16.22
2022-08-07T20:02:19.073Z,16.13
2022-08-07T20:04:49.119Z,16.02
2022-08-07T20:07:23.854Z,15.92
2022-08-07T20:10:35.427Z,15.87
2022-08-07T20:12:53.894Z,15.80
2022-08-07T20:15:24.660Z,15.77
2022-08-07T20:18:04.364Z,15.70
2022-08-07T20:20:32.623Z,15.64
2022-08-07T20:23:10.847Z,15.57
2022-08-07T20:25:55.555Z,15.51
2022-08-07T20:28:29.430Z,15.47
2022-08-07T20:30:57.124Z,15.43
2022-08-07T20:33:37.488Z,15.40
2022-08-07T20:36:07.237Z,15.37
2022-08-07T20:38:35.002Z,15.33
2022-08-07T20:41:05.459Z,15.33
2022-08-07T20:43:33.926Z,15.30
2022-08-07T20:46:26.188Z,15.29
2022-08-07T20:49:54.678Z,15.29
2022-08-07T20:51:46.884Z,15.24
2022-08-07T20:54:29.571Z,15.20
2022-08-07T20:57:02.585Z,15.14
2022-08-07T21:00:08.449Z,15.10
2022-08-07T21:02:41.308Z,15.04
2022-08-07T21:05:42.791Z,14.98
2022-08-07T21:08:15.853Z,14.91
2022-08-07T21:10:44.414Z,14.83
2022-08-07T21:13:17.697Z,14.75
2022-08-07T21:16:00.415Z,14.69
2022-08-07T21:18:33.460Z,14.65
2022-08-07T21:21:02.194Z,14.60
2022-08-07T21:24:00.620Z,14.54
2022-08-07T21:27:00.371Z,14.48
2022-08-07T21:29:53.144Z,14.45
2022-08-07T21:32:54.637Z,14.37
2022-08-07T21:36:05.792Z,14.32
2022-08-07T21:38:28.205Z,14.28
2022-08-07T21:41:10.174Z,14.27
2022-08-07T21:43:55.538Z,14.23
2022-08-07T21:46:32.259Z,14.14
2022-08-07T21:49:14.410Z,14.07
2022-08-07T21:52:11.488Z,14.00
2022-08-07T21:54:46.030Z,13.96
2022-08-07T21:57:44.907Z,13.87
2022-08-07T22:00:25.308Z,13.84
2022-08-07T22:03:06.177Z,13.80
2022-08-07T22:05:46.017Z,13.79
2022-08-07T22:08:18.779Z,13.74
2022-08-07T22:10:50.114Z,13.69
2022-08-07T22:13:17.079Z,13.66
2022-08-07T22:16:43.852Z,13.61
2022-08-07T22:19:18.006Z,13.58
2022-08-07T22:22:05.306Z,13.51
2022-08-07T22:24:55.243Z,13.46
2022-08-07T22:28:20.079Z,13.42
2022-08-07T22:31:05.320Z,13.39
2022-08-07T22:33:56.408Z,13.38
2022-08-07T22:37:09.375Z,13.26
2022-08-07T22:40:17.006Z,13.22
2022-08-07T22:42:45.808Z,13.19
2022-08-07T22:46:04.472Z,13.12
2022-08-07T22:48:31.810Z,13.07
2022-08-07T22:51:14.648Z,13.01
2022-08-07T22:54:16.135Z,13.00
2022-08-07T22:57:01.129Z,12.97
2022-08-07T22:59:59.317Z,12.97
2022-08-07T23:02:37.949Z,12.93
2022-08-07T23:06:15.205Z,12.91
2022-08-07T23:08:30.209Z,12.87
2022-08-07T23:11:15.933Z,12.85
2022-08-07T23:14:14.673Z,12.85
2022-08-07T23:17:15.625Z,12.81
2022-08-07T23:20:51.406Z,12.76
2022-08-07T23:24:05.639Z,12.76
2022-08-07T23:26:24.980Z,12.73
2022-08-07T23:30:35.938Z,12.68
2022-08-07T23:34:23.539Z,12.64
2022-08-07T23:35:43.486Z,12.60
2022-08-07T23:38:47.929Z,12.61
2022-08-07T23:42:05.134Z,12.56
2022-08-07T23:44:51.251Z,12.56
2022-08-07T23:47:26.764Z,12.52
2022-08-07T23:50:05.454Z,12.53
2022-08-07T23:53:08.405Z,12.47
2022-08-07T23:55:53.602Z,12.46
2022-08-07T23:58:59.865Z,12.44
